createdAt,value
2023-04-09T00:00:10.872Z,57.04
2023-04-09T00:03:37.353Z,57.08
2023-04-09T00:06:40.137Z,57.08
2023-04-09T00:09:43.107Z,57.14
2023-04-09T00:12:46.071Z,57.24
2023-04-09T00:15:48.635Z,57.17
2023-04-09T00:18:51.052Z,57.07
2023-04-09T00:21:53.939Z,57.21
2023-04-09T00:24:56.417Z,57.16
2023-04-09T00:27:59.633Z,57.26
2023-04-09T00:31:02.429Z,57.13
2023-04-09T00:34:05.924Z,57.13
2023-04-09T00:37:08.276Z,57.05
2023-04-09T00:40:11.470Z,57.06
2023-04-09T00:43:13.578Z,57.04
2023-04-09T00:46:18.153Z,57.12
2023-04-09T00:49:20.634Z,57.05
2023-04-09T00:52:24.402Z,57.11
2023-04-09T00:55:27.378Z,57.12
2023-04-09T00:58:29.922Z,57.19
2023-04-09T01:01:32.126Z,57.05
2023-04-09T01:04:35.850Z,57.11
2023-04-09T01:07:59.712Z,57.11
2023-04-09T01:11:16.174Z,57.02
2023-04-09T01:14:23.186Z,57.06
2023-04-09T01:17:41.929Z,57.05
2023-04-09T01:21:10.222Z,57.07
2023-04-09T01:24:47.181Z,57.08
2023-04-09T01:28:06.997Z,57.09
2023-04-09T01:31:14.245Z,57.12
2023-04-09T01:34:18.641Z,57.10
2023-04-09T01:37:23.903Z,57.00
2023-04-09T01:40:26.385Z,57.12
2023-04-09T01:43:30.653Z,57.10
2023-04-09T01:46:35.338Z,57.07
2023-04-09T01:49:41.334Z,57.04
2023-04-09T01:52:43.720Z,57.12
2023-04-09T01:55:46.624Z,57.26
2023-04-09T01:58:48.933Z,57.19
2023-04-09T02:02:00.266Z,57.29
2023-04-09T02:05:07.270Z,57.41
2023-04-09T02:08:12.939Z,57.34
2023-04-09T02:11:16.776Z,57.41
2023-04-09T02:14:20.957Z,57.40
2023-04-09T02:17:24.380Z,57.30
2023-04-09T02:20:27.025Z,57.48
2023-04-09T02:23:29.564Z,57.32
2023-04-09T02:26:32.148Z,57.36
2023-04-09T02:29:34.657Z,57.37
2023-04-09T02:32:37.324Z,57.37
2023-04-09T02:35:39.479Z,57.46
2023-04-09T02:38:43.053Z,57.59
2023-04-09T02:41:45.356Z,57.47
2023-04-09T02:44:48.236Z,57.59
2023-04-09T02:47:51.047Z,57.61
2023-04-09T02:50:53.705Z,57.63
2023-04-09T02:53:55.774Z,57.61
2023-04-09T02:56:58.310Z,57.66
2023-04-09T03:00:00.651Z,57.79
2023-04-09T03:03:03.431Z,57.77
2023-04-09T03:06:05.697Z,57.76
2023-04-09T03:09:08.489Z,57.60
2023-04-09T03:12:10.732Z,57.63
2023-04-09T03:15:13.214Z,57.69
2023-04-09T03:18:18.347Z,57.77
2023-04-09T03:21:21.351Z,57.70
2023-04-09T03:24:25.499Z,57.74
2023-04-09T03:27:29.241Z,57.83
2023-04-09T03:30:33.212Z,57.91
2023-04-09T03:33:38.108Z,57.87
2023-04-09T03:36:40.564Z,57.82
2023-04-09T03:39:52.309Z,57.83
2023-04-09T03:42:55.815Z,57.87
2023-04-09T03:45:58.731Z,57.97
2023-04-09T03:49:02.528Z,57.98
2023-04-09T03:52:18.242Z,58.01
2023-04-09T03:55:27.495Z,57.89
2023-04-09T03:58:31.696Z,58.03
2023-04-09T04:01:34.983Z,57.90
2023-04-09T04:04:38.860Z,57.84
2023-04-09T04:07:45.404Z,58.03
2023-04-09T04:10:52.875Z,58.17
2023-04-09T04:13:56.557Z,58.17
2023-04-09T04:17:00.285Z,58.12
2023-04-09T04:20:06.036Z,58.04
2023-04-09T04:23:14.706Z,57.96
2023-04-09T04:26:25.802Z,58.22
2023-04-09T04:29:29.054Z,58.23
2023-04-09T04:32:35.076Z,58.35
2023-04-09T04:35:41.957Z,58.28
2023-04-09T04:38:51.905Z,58.38
2023-04-09T04:42:16.748Z,58.40
2023-04-09T04:45:19.582Z,58.40
2023-04-09T04:48:28.202Z,58.47
2023-04-09T04:51:33.768Z,58.57
2023-04-09T04:54:45.572Z,58.62
2023-04-09T04:57:53.344Z,58.68
2023-04-09T05:01:00.763Z,58.80
2023-04-09T05:04:05.140Z,58.93
2023-04-09T05:07:09.752Z,58.87
2023-04-09T05:10:17.079Z,58.89
2023-04-09T05:13:21.454Z,58.81
2023-04-09T05:16:23.672Z,58.86
2023-04-09T05:19:35.128Z,59.02
2023-04-09T05:22:38.475Z,59.08
2023-04-09T05:25:42.087Z,58.79
2023-04-09T05:28:52.829Z,59.04
2023-04-09T05:31:58.499Z,59.03
2023-04-09T05:35:06.452Z,58.79
2023-04-09T05:38:14.899Z,58.77
2023-04-09T05:41:20.026Z,58.95
2023-04-09T05:44:38.881Z,58.76
2023-04-09T05:47:49.228Z,58.87
2023-04-09T05:51:00.365Z,58.97
2023-04-09T05:54:04.325Z,59.10
2023-04-09T05:57:11.497Z,58.94
2023-04-09T06:00:20.344Z,59.00
2023-04-09T06:03:24.478Z,59.00
2023-04-09T06:06:27.602Z,59.10
2023-04-09T06:09:30.158Z,58.86
2023-04-09T06:12:34.930Z,58.78
2023-04-09T06:15:40.809Z,58.85
2023-04-09T06:18:43.094Z,58.88
2023-04-09T06:21:45.899Z,59.05
2023-04-09T06:24:48.378Z,58.82
2023-04-09T06:27:51.702Z,58.82
2023-04-09T06:30:55.397Z,58.85
2023-04-09T06:33:57.807Z,58.93
2023-04-09T06:36:59.971Z,59.07
2023-04-09T06:40:03.560Z,59.10
2023-04-09T06:43:06.285Z,59.10
2023-04-09T06:46:23.854Z,59.26
2023-04-09T06:49:26.600Z,59.08
2023-04-09T06:52:29.806Z,59.20
2023-04-09T06:55:31.933Z,59.31
2023-04-09T06:58:34.699Z,59.50
2023-04-09T07:01:38.244Z,59.58
2023-04-09T07:04:41.972Z,59.30
2023-04-09T07:07:44.008Z,59.47
2023-04-09T07:10:47.951Z,59.51
2023-04-09T07:13:51.489Z,59.61
2023-04-09T07:16:54.103Z,60.18
2023-04-09T07:19:56.871Z,60.24
2023-04-09T07:22:59.633Z,60.55
2023-04-09T07:26:05.594Z,60.15
2023-04-09T07:29:08.140Z,59.88
2023-04-09T07:32:10.314Z,59.93
2023-04-09T07:35:12.929Z,60.48
2023-04-09T07:38:15.145Z,60.57
2023-04-09T07:41:19.306Z,60.59
2023-04-09T07:44:21.372Z,60.44
2023-04-09T07:47:25.673Z,60.47
2023-04-09T07:50:27.878Z,60.63
2023-04-09T07:53:30.387Z,60.46
2023-04-09T07:56:32.549Z,60.68
2023-04-09T07:59:35.352Z,60.56
2023-04-09T08:02:37.638Z,60.57
2023-04-09T08:05:40.687Z,60.44
2023-04-09T08:08:43.507Z,60.39
2023-04-09T08:11:46.631Z,60.44
2023-04-09T08:14:49.235Z,60.49
2023-04-09T08:17:51.808Z,60.20
2023-04-09T08:20:53.894Z,60.00
2023-04-09T08:24:01.508Z,59.86
2023-04-09T08:27:03.754Z,59.76
2023-04-09T08:30:06.925Z,60.00
2023-04-09T08:33:10.181Z,60.19
2023-04-09T08:36:13.555Z,60.68
2023-04-09T08:39:19.293Z,61.04
2023-04-09T08:42:22.772Z,61.05
2023-04-09T08:45:24.961Z,61.11
2023-04-09T08:48:28.618Z,61.31
2023-04-09T08:51:31.589Z,61.28
2023-04-09T08:54:34.830Z,61.07
2023-04-09T08:57:40.453Z,60.95
2023-04-09T09:00:42.918Z,60.67
2023-04-09T09:04:10.052Z,60.59
2023-04-09T09:07:53.082Z,60.81
2023-04-09T09:10:55.488Z,60.83
2023-04-09T09:14:06.738Z,61.03
2023-04-09T09:17:09.459Z,60.71
2023-04-09T09:20:21.991Z,60.84
2023-04-09T09:23:37.065Z,60.91
2023-04-09T09:26:39.777Z,60.88
2023-04-09T09:29:43.072Z,60.81
2023-04-09T09:32:45.660Z,60.73
2023-04-09T09:35:58.230Z,60.85
2023-04-09T09:39:11.006Z,60.81
2023-04-09T09:42:13.258Z,60.85
2023-04-09T09:45:20.181Z,60.83
2023-04-09T09:48:22.203Z,60.85
2023-04-09T09:51:28.148Z,60.78
2023-04-09T09:54:38.734Z,60.73
2023-04-09T09:57:48.489Z,60.57
2023-04-09T10:00:52.977Z,60.59
2023-04-09T10:03:59.977Z,60.60
2023-04-09T10:07:06.362Z,60.48
2023-04-09T10:10:09.726Z,60.38
2023-04-09T10:13:23.050Z,60.30
2023-04-09T10:16:28.623Z,60.15
2023-04-09T10:19:39.059Z,60.11
2023-04-09T10:22:46.168Z,59.98
2023-04-09T10:25:48.444Z,59.24
2023-04-09T10:29:15.756Z,59.96
2023-04-09T10:32:26.862Z,60.51
2023-04-09T10:35:29.606Z,60.40
2023-04-09T10:38:36.332Z,60.07
2023-04-09T10:41:39.875Z,59.86
2023-04-09T10:44:42.985Z,59.71
2023-04-09T10:47:52.119Z,55.54
2023-04-09T10:50:55.485Z,59.95
2023-04-09T10:53:58.400Z,60.47
2023-04-09T10:57:14.635Z,55.17
2023-04-09T11:00:19.221Z,61.11
2023-04-09T11:03:32.860Z,60.52
2023-04-09T11:06:41.482Z,59.20
2023-04-09T11:09:43.755Z,59.80
2023-04-09T11:12:48.394Z,60.53
2023-04-09T11:15:51.355Z,60.07
2023-04-09T11:18:56.557Z,56.01
2023-04-09T11:21:59.400Z,61.35
2023-04-09T11:25:02.305Z,60.72
2023-04-09T11:28:06.297Z,59.51
2023-04-09T11:31:09.406Z,59.94
2023-04-09T11:34:15.328Z,59.51
2023-04-09T11:37:24.094Z,59.32
2023-04-09T11:40:29.515Z,58.77
2023-04-09T11:43:32.959Z,57.49
2023-04-09T11:46:36.395Z,59.34
2023-04-09T11:49:43.634Z,58.87
2023-04-09T11:52:46.953Z,59.27
2023-04-09T11:55:51.837Z,59.15
2023-04-09T11:58:55.196Z,59.70
2023-04-09T12:01:58.949Z,58.61
2023-04-09T12:05:04.825Z,59.44
2023-04-09T12:08:10.788Z,58.12
2023-04-09T12:11:15.379Z,59.32
2023-04-09T12:14:18.843Z,59.15
2023-04-09T12:17:21.865Z,59.73
2023-04-09T12:20:35.776Z,59.57
2023-04-09T12:23:38.173Z,57.36
2023-04-09T12:26:40.685Z,59.10
2023-04-09T12:29:43.408Z,60.11
2023-04-09T12:32:46.614Z,59.73
2023-04-09T12:35:49.122Z,58.98
2023-04-09T12:38:52.315Z,62.26
2023-04-09T12:41:54.922Z,61.25
2023-04-09T12:44:57.528Z,61.95
2023-04-09T12:47:59.624Z,60.74
2023-04-09T12:51:04.392Z,60.81
2023-04-09T12:54:06.794Z,62.02
2023-04-09T12:57:09.686Z,62.27
2023-04-09T13:00:12.392Z,61.25
2023-04-09T13:03:17.434Z,59.94
2023-04-09T13:06:19.754Z,59.45
2023-04-09T13:09:22.647Z,58.39
2023-04-09T13:12:25.284Z,63.03
2023-04-09T13:15:27.992Z,61.50
2023-04-09T13:18:30.234Z,60.40
2023-04-09T13:21:32.659Z,61.05
2023-04-09T13:24:36.404Z,59.42
2023-04-09T13:27:39.236Z,60.14
2023-04-09T13:30:41.520Z,59.84
2023-04-09T13:33:44.147Z,59.42
2023-04-09T13:36:46.261Z,59.23
2023-04-09T13:39:51.532Z,59.08
2023-04-09T13:42:53.846Z,58.87
2023-04-09T13:45:57.584Z,58.73
2023-04-09T13:48:59.834Z,58.54
2023-04-09T13:52:05.126Z,58.61
2023-04-09T13:55:08.361Z,58.49
2023-04-09T13:58:10.931Z,58.45
2023-04-09T14:01:13.922Z,58.34
2023-04-09T14:04:17.859Z,58.18
2023-04-09T14:07:20.372Z,57.84
2023-04-09T14:10:23.423Z,58.09
2023-04-09T14:13:25.878Z,58.04
2023-04-09T14:16:30.538Z,57.82
2023-04-09T14:19:32.890Z,57.75
2023-04-09T14:22:35.374Z,57.72
2023-04-09T14:25:38.444Z,57.86
2023-04-09T14:28:41.369Z,57.78
2023-04-09T14:31:44.267Z,57.47
2023-04-09T14:34:47.246Z,57.64
2023-04-09T14:37:49.558Z,57.63
2023-04-09T14:40:52.935Z,57.56
2023-04-09T14:43:54.946Z,57.58
2023-04-09T14:46:58.012Z,57.44
2023-04-09T14:50:00.213Z,57.40
2023-04-09T14:53:04.728Z,57.28
2023-04-09T14:56:07.252Z,57.27
2023-04-09T14:59:10.704Z,57.16
2023-04-09T15:02:13.060Z,57.11
2023-04-09T15:05:16.158Z,57.04
2023-04-09T15:08:18.313Z,56.72
2023-04-09T15:11:24.015Z,56.95
2023-04-09T15:14:31.112Z,56.85
2023-04-09T15:17:33.974Z,56.88
2023-04-09T15:20:42.527Z,56.85
2023-04-09T15:23:46.617Z,56.88
2023-04-09T15:26:49.872Z,56.77
2023-04-09T15:29:52.500Z,56.80
2023-04-09T15:32:55.575Z,56.60
2023-04-09T15:35:59.897Z,56.70
2023-04-09T15:39:05.531Z,56.67
2023-04-09T15:42:10.311Z,56.64
2023-04-09T15:45:16.540Z,56.58
2023-04-09T15:48:19.801Z,56.53
2023-04-09T15:51:23.161Z,56.30
2023-04-09T15:54:25.827Z,56.59
2023-04-09T15:57:29.437Z,56.52
2023-04-09T16:00:32.287Z,56.56
2023-04-09T16:03:39.743Z,56.53
2023-04-09T16:06:42.385Z,56.24
2023-04-09T16:09:52.287Z,56.51
2023-04-09T16:12:54.710Z,56.46
2023-04-09T16:15:56.884Z,56.54
2023-04-09T16:19:01.466Z,56.42
2023-04-09T16:22:04.078Z,56.28
2023-04-09T16:25:07.947Z,56.35
2023-04-09T16:28:09.996Z,56.22
2023-04-09T16:31:13.242Z,56.19
2023-04-09T16:34:15.761Z,56.14
2023-04-09T16:37:18.256Z,56.00
2023-04-09T16:40:25.187Z,56.07
2023-04-09T16:43:28.039Z,56.01
2023-04-09T16:46:30.408Z,55.96
2023-04-09T16:49:33.029Z,56.07
2023-04-09T16:52:36.883Z,56.41
2023-04-09T16:55:39.429Z,56.43
2023-04-09T16:58:41.509Z,56.46
2023-04-09T17:01:44.549Z,54.70
2023-04-09T17:04:46.568Z,56.16
2023-04-09T17:07:49.862Z,55.29
2023-04-09T17:10:53.005Z,55.34
2023-04-09T17:13:55.472Z,55.79
2023-04-09T17:16:57.818Z,55.85
2023-04-09T17:20:01.850Z,53.48
2023-04-09T17:23:04.114Z,54.55
2023-04-09T17:26:07.135Z,56.30
2023-04-09T17:29:09.892Z,57.67
2023-04-09T17:32:12.564Z,58.03
2023-04-09T17:35:14.891Z,57.29
2023-04-09T17:38:21.624Z,56.93
2023-04-09T17:41:24.806Z,56.73
2023-04-09T17:44:27.514Z,56.58
2023-04-09T17:47:29.906Z,56.47
2023-04-09T17:50:32.630Z,56.42
2023-04-09T17:53:34.730Z,56.59
2023-04-09T17:56:39.210Z,56.30
2023-04-09T17:59:41.359Z,56.70
2023-04-09T18:02:45.125Z,56.61
2023-04-09T18:05:47.580Z,56.61
2023-04-09T18:08:51.128Z,56.66
2023-04-09T18:11:56.476Z,56.67
2023-04-09T18:14:58.900Z,56.65
2023-04-09T18:18:01.242Z,56.84
2023-04-09T18:21:04.807Z,57.11
2023-04-09T18:24:07.859Z,57.07
2023-04-09T18:27:10.860Z,56.91
2023-04-09T18:30:13.108Z,55.89
2023-04-09T18:33:15.883Z,57.34
2023-04-09T18:36:19.650Z,57.30
2023-04-09T18:39:24.210Z,57.34
2023-04-09T18:42:26.682Z,57.40
2023-04-09T18:45:29.654Z,57.40
2023-04-09T18:48:32.078Z,57.40
2023-04-09T18:51:34.427Z,57.39
2023-04-09T18:54:39.197Z,57.43
2023-04-09T18:57:44.288Z,57.31
2023-04-09T19:00:47.293Z,57.20
2023-04-09T19:03:52.121Z,57.31
2023-04-09T19:06:54.904Z,57.35
2023-04-09T19:09:57.678Z,57.38
2023-04-09T19:12:59.814Z,57.46
2023-04-09T19:16:02.817Z,57.59
2023-04-09T19:19:05.231Z,57.57
2023-04-09T19:22:08.009Z,57.62
2023-04-09T19:25:10.715Z,57.62
2023-04-09T19:28:13.561Z,57.67
2023-04-09T19:31:17.316Z,57.74
2023-04-09T19:34:20.336Z,57.72
2023-04-09T19:37:25.732Z,57.84
2023-04-09T19:40:28.113Z,57.91
2023-04-09T19:43:30.501Z,57.89
2023-04-09T19:46:33.952Z,57.85
2023-04-09T19:49:36.239Z,57.70
2023-04-09T19:52:40.919Z,57.67
2023-04-09T19:55:43.070Z,57.60
2023-04-09T19:58:45.849Z,57.60
2023-04-09T20:01:48.825Z,57.55
2023-04-09T20:04:52.574Z,57.53
2023-04-09T20:07:55.110Z,58.50
2023-04-09T20:10:57.572Z,58.77
2023-04-09T20:14:00.181Z,58.77
2023-04-09T20:17:03.372Z,58.65
2023-04-09T20:20:05.880Z,58.61
2023-04-09T20:23:08.561Z,58.45
2023-04-09T20:26:11.299Z,58.52
2023-04-09T20:29:14.881Z,58.69
2023-04-09T20:32:17.281Z,58.64
2023-04-09T20:35:20.046Z,58.69
2023-04-09T20:38:23.034Z,58.65
2023-04-09T20:41:26.049Z,58.73
2023-04-09T20:44:28.879Z,58.82
2023-04-09T20:47:32.072Z,58.81
2023-04-09T20:50:34.140Z,58.72
2023-04-09T20:53:37.928Z,58.74
2023-04-09T20:56:39.911Z,58.79
2023-04-09T20:59:42.481Z,58.71
2023-04-09T21:02:44.819Z,58.34
2023-04-09T21:05:47.363Z,58.79
2023-04-09T21:08:49.464Z,58.68
2023-04-09T21:11:51.926Z,58.67
2023-04-09T21:14:54.205Z,58.57
2023-04-09T21:17:56.735Z,58.53
2023-04-09T21:20:58.901Z,58.73
2023-04-09T21:24:01.669Z,58.66
2023-04-09T21:27:07.546Z,58.57
2023-04-09T21:30:10.695Z,58.57
2023-04-09T21:33:13.016Z,58.53
2023-04-09T21:36:16.946Z,58.45
2023-04-09T21:39:19.154Z,58.44
2023-04-09T21:42:23.199Z,58.51
2023-04-09T21:45:25.489Z,58.35
2023-04-09T21:48:30.868Z,58.25
2023-04-09T21:51:33.252Z,58.24
2023-04-09T21:54:36.309Z,58.28
2023-04-09T21:57:38.304Z,58.42
2023-04-09T22:00:41.291Z,58.39
2023-04-09T22:03:44.691Z,58.29
2023-04-09T22:06:47.205Z,58.13
2023-04-09T22:09:49.327Z,58.05
2023-04-09T22:12:51.773Z,57.87
2023-04-09T22:15:54.331Z,57.83
2023-04-09T22:18:57.678Z,57.75
2023-04-09T22:22:00.384Z,57.74
2023-04-09T22:25:03.251Z,57.73
2023-04-09T22:28:06.244Z,57.64
2023-04-09T22:31:09.243Z,57.58
2023-04-09T22:34:20.732Z,57.39
2023-04-09T22:37:24.279Z,57.42
2023-04-09T22:40:26.761Z,57.31
2023-04-09T22:43:29.291Z,57.23
2023-04-09T22:46:32.018Z,57.24
2023-04-09T22:49:35.135Z,57.28
2023-04-09T22:52:37.326Z,57.07
2023-04-09T22:55:39.926Z,57.11
2023-04-09T22:58:42.378Z,56.94
2023-04-09T23:01:45.535Z,56.96
2023-04-09T23:04:47.943Z,56.81
2023-04-09T23:07:51.394Z,56.70
2023-04-09T23:10:54.785Z,56.97
2023-04-09T23:13:59.149Z,57.07
2023-04-09T23:17:01.535Z,57.05
2023-04-09T23:20:04.292Z,56.99
2023-04-09T23:23:06.698Z,56.95
2023-04-09T23:26:09.189Z,56.98
2023-04-09T23:29:11.514Z,57.02
2023-04-09T23:32:14.428Z,57.08
2023-04-09T23:35:17.466Z,57.09
2023-04-09T23:38:20.000Z,56.99
2023-04-09T23:41:22.120Z,57.07
2023-04-09T23:44:24.738Z,57.04
2023-04-09T23:47:28.267Z,57.00
2023-04-09T23:50:30.807Z,57.01
2023-04-09T23:53:32.946Z,56.95
2023-04-09T23:56:35.975Z,56.98
2023-04-09T23:59:37.970Z,56.93
